sensor_id;sensor_type;location;lat;lon;timestamp;temperature;humidity
65766;SHT31;52915;53.718;19.946;2023-07-29T00:03:39;14.17;79.86
65766;SHT31;52915;53.718;19.946;2023-07-29T00:08:44;14.08;79.90
65766;SHT31;52915;53.718;19.946;2023-07-29T00:13:48;13.98;80.04
65766;SHT31;52915;53.718;19.946;2023-07-29T00:18:53;13.94;80.11
65766;SHT31;52915;53.718;19.946;2023-07-29T00:23:57;13.92;80.03
65766;SHT31;52915;53.718;19.946;2023-07-29T00:29:02;13.82;80.25
65766;SHT31;52915;53.718;19.946;2023-07-29T00:34:06;13.73;80.32
65766;SHT31;52915;53.718;19.946;2023-07-29T00:39:10;13.72;80.29
65766;SHT31;52915;53.718;19.946;2023-07-29T00:44:15;13.70;80.25
65766;SHT31;52915;53.718;19.946;2023-07-29T00:49:19;13.72;80.30
65766;SHT31;52915;53.718;19.946;2023-07-29T00:54:24;13.62;80.40
65766;SHT31;52915;53.718;19.946;2023-07-29T00:59:29;13.51;80.76
65766;SHT31;52915;53.718;19.946;2023-07-29T01:04:35;13.49;81.51
65766;SHT31;52915;53.718;19.946;2023-07-29T01:15:09;13.52;82.21
65766;SHT31;52915;53.718;19.946;2023-07-29T01:20:20;13.54;82.30
65766;SHT31;52915;53.718;19.946;2023-07-29T01:25:27;13.52;82.32
65766;SHT31;52915;53.718;19.946;2023-07-29T01:30:33;13.48;82.62
65766;SHT31;52915;53.718;19.946;2023-07-29T01:35:48;13.46;83.01
65766;SHT31;52915;53.718;19.946;2023-07-29T01:41:06;13.47;83.19
65766;SHT31;52915;53.718;19.946;2023-07-29T01:46:15;13.48;83.00
65766;SHT31;52915;53.718;19.946;2023-07-29T01:51:19;13.49;82.68
65766;SHT31;52915;53.718;19.946;2023-07-29T01:56:24;13.48;82.41
65766;SHT31;52915;53.718;19.946;2023-07-29T02:01:28;13.31;82.74
65766;SHT31;52915;53.718;19.946;2023-07-29T02:06:34;13.35;82.97
65766;SHT31;52915;53.718;19.946;2023-07-29T02:11:39;13.41;82.90
65766;SHT31;52915;53.718;19.946;2023-07-29T02:16:43;13.44;82.89
65766;SHT31;52915;53.718;19.946;2023-07-29T02:21:47;13.44;83.07
65766;SHT31;52915;53.718;19.946;2023-07-29T02:26:51;13.44;83.00
65766;SHT31;52915;53.718;19.946;2023-07-29T02:31:55;13.37;82.96
65766;SHT31;52915;53.718;19.946;2023-07-29T02:37:00;13.41;82.89
65766;SHT31;52915;53.718;19.946;2023-07-29T02:42:04;13.35;82.72
65766;SHT31;52915;53.718;19.946;2023-07-29T02:47:08;13.24;82.82
65766;SHT31;52915;53.718;19.946;2023-07-29T02:52:12;13.19;82.79
65766;SHT31;52915;53.718;19.946;2023-07-29T02:57:16;13.13;82.60
65766;SHT31;52915;53.718;19.946;2023-07-29T03:02:20;13.10;82.73
65766;SHT31;52915;53.718;19.946;2023-07-29T03:07:24;13.09;82.71
65766;SHT31;52915;53.718;19.946;2023-07-29T03:12:29;13.14;82.65
65766;SHT31;52915;53.718;19.946;2023-07-29T03:17:33;13.18;82.71
65766;SHT31;52915;53.718;19.946;2023-07-29T03:22:37;13.22;82.78
65766;SHT31;52915;53.718;19.946;2023-07-29T03:27:41;13.14;83.10
65766;SHT31;52915;53.718;19.946;2023-07-29T03:32:45;13.20;83.54
65766;SHT31;52915;53.718;19.946;2023-07-29T03:37:50;13.30;83.69
65766;SHT31;52915;53.718;19.946;2023-07-29T03:42:54;13.42;83.71
65766;SHT31;52915;53.718;19.946;2023-07-29T03:47:58;13.49;83.85
65766;SHT31;52915;53.718;19.946;2023-07-29T03:53:02;13.53;84.00
65766;SHT31;52915;53.718;19.946;2023-07-29T03:58:07;13.56;84.08
65766;SHT31;52915;53.718;19.946;2023-07-29T04:03:11;13.60;84.27
65766;SHT31;52915;53.718;19.946;2023-07-29T04:08:16;13.64;84.21
65766;SHT31;52915;53.718;19.946;2023-07-29T04:13:22;13.64;84.38
65766;SHT31;52915;53.718;19.946;2023-07-29T04:18:29;13.77;84.51
65766;SHT31;52915;53.718;19.946;2023-07-29T04:23:33;13.83;84.43
65766;SHT31;52915;53.718;19.946;2023-07-29T04:28:38;13.84;84.54
65766;SHT31;52915;53.718;19.946;2023-07-29T04:33:42;13.94;84.72
65766;SHT31;52915;53.718;19.946;2023-07-29T04:38:47;14.12;84.64
65766;SHT31;52915;53.718;19.946;2023-07-29T04:43:51;14.20;84.40
65766;SHT31;52915;53.718;19.946;2023-07-29T04:48:57;14.35;84.25
65766;SHT31;52915;53.718;19.946;2023-07-29T04:54:01;14.54;84.07
65766;SHT31;52915;53.718;19.946;2023-07-29T04:59:04;14.80;84.03
65766;SHT31;52915;53.718;19.946;2023-07-29T05:04:10;15.06;83.86
65766;SHT31;52915;53.718;19.946;2023-07-29T05:09:16;15.29;83.31
65766;SHT31;52915;53.718;19.946;2023-07-29T05:14:25;15.41;83.10
65766;SHT31;52915;53.718;19.946;2023-07-29T05:19:29;15.49;82.93
65766;SHT31;52915;53.718;19.946;2023-07-29T05:24:33;15.57;82.78
65766;SHT31;52915;53.718;19.946;2023-07-29T05:29:37;15.80;82.69
65766;SHT31;52915;53.718;19.946;2023-07-29T05:34:41;16.07;82.46
65766;SHT31;52915;53.718;19.946;2023-07-29T05:39:45;16.42;82.19
65766;SHT31;52915;53.718;19.946;2023-07-29T05:44:49;16.81;81.75
65766;SHT31;52915;53.718;19.946;2023-07-29T05:49:53;17.16;81.18
65766;SHT31;52915;53.718;19.946;2023-07-29T05:54:58;17.42;80.68
65766;SHT31;52915;53.718;19.946;2023-07-29T06:00:02;17.80;80.36
65766;SHT31;52915;53.718;19.946;2023-07-29T06:05:13;18.22;79.30
65766;SHT31;52915;53.718;19.946;2023-07-29T06:10:19;18.46;78.32
65766;SHT31;52915;53.718;19.946;2023-07-29T06:15:23;18.55;77.06
65766;SHT31;52915;53.718;19.946;2023-07-29T06:20:28;18.78;76.64
65766;SHT31;52915;53.718;19.946;2023-07-29T06:25:32;19.19;75.99
65766;SHT31;52915;53.718;19.946;2023-07-29T06:30:36;19.63;75.18
65766;SHT31;52915;53.718;19.946;2023-07-29T06:35:41;19.81;73.39
65766;SHT31;52915;53.718;19.946;2023-07-29T06:40:45;20.09;73.32
65766;SHT31;52915;53.718;19.946;2023-07-29T06:45:49;20.40;72.18
65766;SHT31;52915;53.718;19.946;2023-07-29T06:50:56;20.54;71.39
65766;SHT31;52915;53.718;19.946;2023-07-29T06:56:06;20.79;70.61
65766;SHT31;52915;53.718;19.946;2023-07-29T07:01:10;20.73;69.39
65766;SHT31;52915;53.718;19.946;2023-07-29T07:06:15;20.66;68.82
65766;SHT31;52915;53.718;19.946;2023-07-29T07:11:19;21.00;67.93
65766;SHT31;52915;53.718;19.946;2023-07-29T07:16:23;21.06;66.71
65766;SHT31;52915;53.718;19.946;2023-07-29T07:21:27;20.88;66.00
65766;SHT31;52915;53.718;19.946;2023-07-29T07:26:32;21.13;66.35
65766;SHT31;52915;53.718;19.946;2023-07-29T07:31:36;21.36;63.90
65766;SHT31;52915;53.718;19.946;2023-07-29T07:36:41;21.66;64.20
65766;SHT31;52915;53.718;19.946;2023-07-29T07:41:47;22.04;63.40
65766;SHT31;52915;53.718;19.946;2023-07-29T07:46:52;22.34;62.94
65766;SHT31;52915;53.718;19.946;2023-07-29T07:52:00;22.61;62.16
65766;SHT31;52915;53.718;19.946;2023-07-29T07:57:11;22.79;61.06
65766;SHT31;52915;53.718;19.946;2023-07-29T08:02:14;22.81;58.96
65766;SHT31;52915;53.718;19.946;2023-07-29T08:07:19;22.88;58.56
65766;SHT31;52915;53.718;19.946;2023-07-29T08:12:24;23.21;57.56
65766;SHT31;52915;53.718;19.946;2023-07-29T08:17:28;23.47;57.67
65766;SHT31;52915;53.718;19.946;2023-07-29T08:22:32;23.78;56.94
65766;SHT31;52915;53.718;19.946;2023-07-29T08:27:37;24.04;56.03
65766;SHT31;52915;53.718;19.946;2023-07-29T08:32:41;24.25;54.01
65766;SHT31;52915;53.718;19.946;2023-07-29T08:37:46;24.58;53.65
65766;SHT31;52915;53.718;19.946;2023-07-29T08:42:51;24.62;52.50
65766;SHT31;52915;53.718;19.946;2023-07-29T08:47:58;24.72;52.85
65766;SHT31;52915;53.718;19.946;2023-07-29T08:53:06;24.65;51.49
65766;SHT31;52915;53.718;19.946;2023-07-29T08:58:11;24.88;51.14
65766;SHT31;52915;53.718;19.946;2023-07-29T09:03:15;24.90;50.40
65766;SHT31;52915;53.718;19.946;2023-07-29T09:08:20;25.14;50.28
65766;SHT31;52915;53.718;19.946;2023-07-29T09:13:25;25.33;48.83
65766;SHT31;52915;53.718;19.946;2023-07-29T09:18:30;25.26;48.53
65766;SHT31;52915;53.718;19.946;2023-07-29T09:23:41;25.61;47.88
65766;SHT31;52915;53.718;19.946;2023-07-29T09:28:50;25.78;46.73
65766;SHT31;52915;53.718;19.946;2023-07-29T09:34:01;26.19;46.41
65766;SHT31;52915;53.718;19.946;2023-07-29T09:39:10;26.52;45.38
65766;SHT31;52915;53.718;19.946;2023-07-29T09:44:19;26.49;44.10
65766;SHT31;52915;53.718;19.946;2023-07-29T09:49:24;26.55;44.92
65766;SHT31;52915;53.718;19.946;2023-07-29T09:54:29;27.03;44.06
65766;SHT31;52915;53.718;19.946;2023-07-29T09:59:34;26.93;43.11
65766;SHT31;52915;53.718;19.946;2023-07-29T10:04:41;26.89;43.56
65766;SHT31;52915;53.718;19.946;2023-07-29T10:09:46;27.21;43.73
65766;SHT31;52915;53.718;19.946;2023-07-29T10:14:57;27.28;43.41
65766;SHT31;52915;53.718;19.946;2023-07-29T10:20:07;27.17;42.99
65766;SHT31;52915;53.718;19.946;2023-07-29T10:25:18;26.76;43.46
65766;SHT31;52915;53.718;19.946;2023-07-29T10:30:26;26.69;43.47
65766;SHT31;52915;53.718;19.946;2023-07-29T10:35:32;27.23;43.10
65766;SHT31;52915;53.718;19.946;2023-07-29T10:40:44;27.47;41.94
65766;SHT31;52915;53.718;19.946;2023-07-29T10:51:39;27.36;41.26
65766;SHT31;52915;53.718;19.946;2023-07-29T10:56:48;27.43;40.19
65766;SHT31;52915;53.718;19.946;2023-07-29T11:01:56;27.46;38.10
65766;SHT31;52915;53.718;19.946;2023-07-29T11:12:57;27.64;38.74
65766;SHT31;52915;53.718;19.946;2023-07-29T11:17:45;28.01;36.84
65766;SHT31;52915;53.718;19.946;2023-07-29T11:22:58;27.76;36.71
65766;SHT31;52915;53.718;19.946;2023-07-29T11:28:05;28.04;36.97
65766;SHT31;52915;53.718;19.946;2023-07-29T11:33:09;28.29;37.85
65766;SHT31;52915;53.718;19.946;2023-07-29T11:38:16;28.48;37.97
65766;SHT31;52915;53.718;19.946;2023-07-29T11:43:23;28.52;36.79
65766;SHT31;52915;53.718;19.946;2023-07-29T11:48:31;28.18;36.69
65766;SHT31;52915;53.718;19.946;2023-07-29T11:53:36;28.36;36.90
65766;SHT31;52915;53.718;19.946;2023-07-29T11:58:41;28.56;35.33
65766;SHT31;52915;53.718;19.946;2023-07-29T12:03:45;27.84;33.79
65766;SHT31;52915;53.718;19.946;2023-07-29T12:08:50;27.80;35.56
65766;SHT31;52915;53.718;19.946;2023-07-29T12:13:56;28.03;36.15
65766;SHT31;52915;53.718;19.946;2023-07-29T12:19:00;27.84;36.04
65766;SHT31;52915;53.718;19.946;2023-07-29T12:24:04;28.07;36.06
65766;SHT31;52915;53.718;19.946;2023-07-29T12:29:15;28.42;35.69
65766;SHT31;52915;53.718;19.946;2023-07-29T12:34:25;28.47;35.42
65766;SHT31;52915;53.718;19.946;2023-07-29T12:39:35;28.48;35.67
65766;SHT31;52915;53.718;19.946;2023-07-29T12:44:47;28.65;35.86
65766;SHT31;52915;53.718;19.946;2023-07-29T12:49:51;28.55;35.33
65766;SHT31;52915;53.718;19.946;2023-07-29T12:54:55;28.71;35.44
65766;SHT31;52915;53.718;19.946;2023-07-29T13:00:00;28.56;35.55
65766;SHT31;52915;53.718;19.946;2023-07-29T13:05:04;28.85;36.17
65766;SHT31;52915;53.718;19.946;2023-07-29T13:10:09;29.30;36.20
65766;SHT31;52915;53.718;19.946;2023-07-29T13:15:14;29.82;35.85
65766;SHT31;52915;53.718;19.946;2023-07-29T13:20:18;29.66;35.42
65766;SHT31;52915;53.718;19.946;2023-07-29T13:25:22;29.61;35.56
65766;SHT31;52915;53.718;19.946;2023-07-29T13:30:27;29.68;35.44
65766;SHT31;52915;53.718;19.946;2023-07-29T13:35:31;29.47;35.63
65766;SHT31;52915;53.718;19.946;2023-07-29T13:40:35;29.53;36.01
65766;SHT31;52915;53.718;19.946;2023-07-29T13:45:40;29.59;35.76
65766;SHT31;52915;53.718;19.946;2023-07-29T13:50:44;30.05;35.59
65766;SHT31;52915;53.718;19.946;2023-07-29T13:55:49;29.99;35.13
65766;SHT31;52915;53.718;19.946;2023-07-29T14:00:53;30.26;35.10
65766;SHT31;52915;53.718;19.946;2023-07-29T14:06:00;30.33;34.90
65766;SHT31;52915;53.718;19.946;2023-07-29T14:11:04;30.56;34.94
65766;SHT31;52915;53.718;19.946;2023-07-29T14:16:09;30.43;34.90
65766;SHT31;52915;53.718;19.946;2023-07-29T14:21:13;30.52;35.10
65766;SHT31;52915;53.718;19.946;2023-07-29T14:26:17;30.46;35.19
65766;SHT31;52915;53.718;19.946;2023-07-29T14:31:21;29.84;35.40
65766;SHT31;52915;53.718;19.946;2023-07-29T14:36:26;29.63;36.17
65766;SHT31;52915;53.718;19.946;2023-07-29T14:41:31;29.66;36.42
65766;SHT31;52915;53.718;19.946;2023-07-29T14:46:36;29.48;36.51
65766;SHT31;52915;53.718;19.946;2023-07-29T14:51:40;28.96;36.96
65766;SHT31;52915;53.718;19.946;2023-07-29T14:56:45;28.58;37.74
65766;SHT31;52915;53.718;19.946;2023-07-29T15:01:49;28.42;38.38
65766;SHT31;52915;53.718;19.946;2023-07-29T15:06:53;28.37;38.60
65766;SHT31;52915;53.718;19.946;2023-07-29T15:11:58;28.12;38.88
65766;SHT31;52915;53.718;19.946;2023-07-29T15:17:03;27.83;39.31
65766;SHT31;52915;53.718;19.946;2023-07-29T15:22:08;27.87;39.65
65766;SHT31;52915;53.718;19.946;2023-07-29T15:27:12;27.98;39.57
65766;SHT31;52915;53.718;19.946;2023-07-29T15:32:16;27.94;40.38
65766;SHT31;52915;53.718;19.946;2023-07-29T15:37:20;28.12;40.09
65766;SHT31;52915;53.718;19.946;2023-07-29T15:42:24;28.42;39.76
65766;SHT31;52915;53.718;19.946;2023-07-29T15:47:28;28.45;39.86
65766;SHT31;52915;53.718;19.946;2023-07-29T15:52:33;28.60;39.88
65766;SHT31;52915;53.718;19.946;2023-07-29T15:57:37;28.93;39.76
65766;SHT31;52915;53.718;19.946;2023-07-29T16:02:41;28.84;39.32
65766;SHT31;52915;53.718;19.946;2023-07-29T16:07:46;28.30;40.16
65766;SHT31;52915;53.718;19.946;2023-07-29T16:12:50;27.97;41.15
65766;SHT31;52915;53.718;19.946;2023-07-29T16:17:55;28.26;41.10
65766;SHT31;52915;53.718;19.946;2023-07-29T16:23:01;28.48;41.46
65766;SHT31;52915;53.718;19.946;2023-07-29T16:28:07;28.69;40.63
65766;SHT31;52915;53.718;19.946;2023-07-29T16:33:11;28.57;41.14
65766;SHT31;52915;53.718;19.946;2023-07-29T16:38:15;28.22;41.42
65766;SHT31;52915;53.718;19.946;2023-07-29T16:43:19;27.68;42.67
65766;SHT31;52915;53.718;19.946;2023-07-29T16:48:23;27.23;43.09
65766;SHT31;52915;53.718;19.946;2023-07-29T16:53:27;26.89;43.58
65766;SHT31;52915;53.718;19.946;2023-07-29T16:58:31;26.55;44.53
65766;SHT31;52915;53.718;19.946;2023-07-29T17:03:35;26.36;44.78
65766;SHT31;52915;53.718;19.946;2023-07-29T17:08:39;26.15;45.28
65766;SHT31;52915;53.718;19.946;2023-07-29T17:13:44;25.96;45.74
65766;SHT31;52915;53.718;19.946;2023-07-29T17:18:48;25.81;46.46
65766;SHT31;52915;53.718;19.946;2023-07-29T17:23:52;25.68;46.90
65766;SHT31;52915;53.718;19.946;2023-07-29T17:28:56;25.55;47.31
65766;SHT31;52915;53.718;19.946;2023-07-29T17:34:00;25.42;47.88
65766;SHT31;52915;53.718;19.946;2023-07-29T17:39:06;25.24;48.39
65766;SHT31;52915;53.718;19.946;2023-07-29T17:44:10;25.09;48.94
65766;SHT31;52915;53.718;19.946;2023-07-29T17:49:14;24.95;49.35
65766;SHT31;52915;53.718;19.946;2023-07-29T17:54:18;24.78;49.94
65766;SHT31;52915;53.718;19.946;2023-07-29T17:59:22;24.65;50.19
65766;SHT31;52915;53.718;19.946;2023-07-29T18:04:26;24.55;50.49
65766;SHT31;52915;53.718;19.946;2023-07-29T18:09:30;24.45;50.82
65766;SHT31;52915;53.718;19.946;2023-07-29T18:14:35;24.35;51.24
65766;SHT31;52915;53.718;19.946;2023-07-29T18:19:43;24.26;51.67
65766;SHT31;52915;53.718;19.946;2023-07-29T18:24:48;24.13;52.36
65766;SHT31;52915;53.718;19.946;2023-07-29T18:29:52;24.04;52.51
65766;SHT31;52915;53.718;19.946;2023-07-29T18:34:57;23.98;52.93
65766;SHT31;52915;53.718;19.946;2023-07-29T18:40:01;23.71;56.92
65766;SHT31;52915;53.718;19.946;2023-07-29T18:45:06;22.74;62.63
65766;SHT31;52915;53.718;19.946;2023-07-29T18:50:11;21.78;67.62
65766;SHT31;52915;53.718;19.946;2023-07-29T18:55:15;21.09;69.65
65766;SHT31;52915;53.718;19.946;2023-07-29T19:00:19;20.63;70.92
65766;SHT31;52915;53.718;19.946;2023-07-29T19:05:23;20.30;72.06
65766;SHT31;52915;53.718;19.946;2023-07-29T19:10:28;20.07;72.65
65766;SHT31;52915;53.718;19.946;2023-07-29T19:15:32;19.96;73.10
65766;SHT31;52915;53.718;19.946;2023-07-29T19:20:36;19.79;73.93
65766;SHT31;52915;53.718;19.946;2023-07-29T19:25:49;19.63;74.65
65766;SHT31;52915;53.718;19.946;2023-07-29T19:30:54;19.58;75.01
65766;SHT31;52915;53.718;19.946;2023-07-29T19:36:00;19.55;75.39
65766;SHT31;52915;53.718;19.946;2023-07-29T19:41:04;19.46;75.89
65766;SHT31;52915;53.718;19.946;2023-07-29T19:46:13;19.39;76.04
65766;SHT31;52915;53.718;19.946;2023-07-29T19:51:22;19.28;76.43
65766;SHT31;52915;53.718;19.946;2023-07-29T19:56:28;19.27;76.86
65766;SHT31;52915;53.718;19.946;2023-07-29T20:01:37;19.32;77.04
65766;SHT31;52915;53.718;19.946;2023-07-29T20:06:44;19.47;76.40
65766;SHT31;52915;53.718;19.946;2023-07-29T20:11:52;19.43;76.18
65766;SHT31;52915;53.718;19.946;2023-07-29T20:16:56;19.15;76.79
65766;SHT31;52915;53.718;19.946;2023-07-29T20:22:00;19.09;77.17
65766;SHT31;52915;53.718;19.946;2023-07-29T20:27:05;19.01;78.30
65766;SHT31;52915;53.718;19.946;2023-07-29T20:32:09;18.74;80.05
65766;SHT31;52915;53.718;19.946;2023-07-29T20:37:13;18.56;81.47
65766;SHT31;52915;53.718;19.946;2023-07-29T20:48:57;18.15;83.02
65766;SHT31;52915;53.718;19.946;2023-07-29T20:54:02;18.03;82.86
65766;SHT31;52915;53.718;19.946;2023-07-29T20:59:06;17.98;83.19
65766;SHT31;52915;53.718;19.946;2023-07-29T21:04:12;18.00;83.42
65766;SHT31;52915;53.718;19.946;2023-07-29T21:09:16;17.99;83.54
65766;SHT31;52915;53.718;19.946;2023-07-29T21:14:21;18.01;83.38
65766;SHT31;52915;53.718;19.946;2023-07-29T21:19:26;18.00;83.50
65766;SHT31;52915;53.718;19.946;2023-07-29T21:24:31;17.97;83.75
65766;SHT31;52915;53.718;19.946;2023-07-29T21:29:35;17.96;84.01
65766;SHT31;52915;53.718;19.946;2023-07-29T21:34:40;17.94;84.17
65766;SHT31;52915;53.718;19.946;2023-07-29T21:39:44;17.98;84.25
65766;SHT31;52915;53.718;19.946;2023-07-29T21:44:48;17.93;84.63
65766;SHT31;52915;53.718;19.946;2023-07-29T21:49:53;17.90;84.78
65766;SHT31;52915;53.718;19.946;2023-07-29T21:54:57;17.94;84.56
65766;SHT31;52915;53.718;19.946;2023-07-29T22:00:03;17.95;84.55
65766;SHT31;52915;53.718;19.946;2023-07-29T22:05:10;17.95;84.59
65766;SHT31;52915;53.718;19.946;2023-07-29T22:10:15;17.99;84.47
65766;SHT31;52915;53.718;19.946;2023-07-29T22:15:19;18.03;84.21
65766;SHT31;52915;53.718;19.946;2023-07-29T22:20:24;18.16;83.86
65766;SHT31;52915;53.718;19.946;2023-07-29T22:25:28;18.25;83.56
65766;SHT31;52915;53.718;19.946;2023-07-29T22:30:34;18.22;83.61
65766;SHT31;52915;53.718;19.946;2023-07-29T22:35:40;18.26;83.45
65766;SHT31;52915;53.718;19.946;2023-07-29T22:40:53;18.28;83.32
65766;SHT31;52915;53.718;19.946;2023-07-29T22:45:59;18.25;83.54
65766;SHT31;52915;53.718;19.946;2023-07-29T22:51:05;18.17;83.79
65766;SHT31;52915;53.718;19.946;2023-07-29T22:56:09;18.18;83.75
65766;SHT31;52915;53.718;19.946;2023-07-29T23:01:14;18.24;83.79
65766;SHT31;52915;53.718;19.946;2023-07-29T23:06:18;18.29;83.65
65766;SHT31;52915;53.718;19.946;2023-07-29T23:11:23;18.23;83.75
65766;SHT31;52915;53.718;19.946;2023-07-29T23:16:27;18.16;83.72
65766;SHT31;52915;53.718;19.946;2023-07-29T23:21:31;18.15;83.63
65766;SHT31;52915;53.718;19.946;2023-07-29T23:26:35;18.09;83.80
65766;SHT31;52915;53.718;19.946;2023-07-29T23:31:39;18.10;83.88
65766;SHT31;52915;53.718;19.946;2023-07-29T23:36:44;18.18;83.54
65766;SHT31;52915;53.718;19.946;2023-07-29T23:41:48;18.24;83.14
65766;SHT31;52915;53.718;19.946;2023-07-29T23:46:53;18.27;82.89
65766;SHT31;52915;53.718;19.946;2023-07-29T23:51:57;18.23;82.92
65766;SHT31;52915;53.718;19.946;2023-07-29T23:57:01;18.15;83.20
